sensor_id;sensor_type;location;lat;lon;timestamp;temperature;humidity
22970;DHT22;11651;52.136;5.572;2022-07-12T00:01:08;18.30;99.90
22970;DHT22;11651;52.136;5.572;2022-07-12T00:03:34;17.70;99.90
22970;DHT22;11651;52.136;5.572;2022-07-12T00:06:00;17.70;99.90
22970;DHT22;11651;52.136;5.572;2022-07-12T00:08:26;17.90;99.90
22970;DHT22;11651;52.136;5.572;2022-07-12T00:10:52;17.60;99.90
22970;DHT22;11651;52.136;5.572;2022-07-12T00:13:18;17.50;99.90
22970;DHT22;11651;52.136;5.572;2022-07-12T00:15:43;17.60;99.90
22970;DHT22;11651;52.136;5.572;2022-07-12T00:18:09;17.50;99.90
22970;DHT22;11651;52.136;5.572;2022-07-12T00:20:36;17.50;99.90
22970;DHT22;11651;52.136;5.572;2022-07-12T00:23:01;17.40;99.90
22970;DHT22;11651;52.136;5.572;2022-07-12T00:25:27;17.20;99.90
22970;DHT22;11651;52.136;5.572;2022-07-12T00:27:53;17.40;99.90
22970;DHT22;11651;52.136;5.572;2022-07-12T00:30:19;17.40;99.90
22970;DHT22;11651;52.136;5.572;2022-07-12T00:32:45;17.70;99.90
22970;DHT22;11651;52.136;5.572;2022-07-12T00:35:11;17.20;99.90
22970;DHT22;11651;52.136;5.572;2022-07-12T00:37:37;17.20;99.90
22970;DHT22;11651;52.136;5.572;2022-07-12T00:40:06;17.40;99.90
22970;DHT22;11651;52.136;5.572;2022-07-12T00:42:31;17.20;99.90
22970;DHT22;11651;52.136;5.572;2022-07-12T00:44:58;17.20;99.90
22970;DHT22;11651;52.136;5.572;2022-07-12T00:47:44;17.20;99.90
22970;DHT22;11651;52.136;5.572;2022-07-12T00:50:15;17.20;99.90
22970;DHT22;11651;52.136;5.572;2022-07-12T00:52:43;17.10;99.90
22970;DHT22;11651;52.136;5.572;2022-07-12T00:55:09;17.00;99.90
22970;DHT22;11651;52.136;5.572;2022-07-12T00:57:36;17.80;99.90
22970;DHT22;11651;52.136;5.572;2022-07-12T01:00:04;17.00;99.90
22970;DHT22;11651;52.136;5.572;2022-07-12T01:02:31;17.00;99.90
22970;DHT22;11651;52.136;5.572;2022-07-12T01:04:58;17.00;99.90
22970;DHT22;11651;52.136;5.572;2022-07-12T01:07:25;17.00;99.90
22970;DHT22;11651;52.136;5.572;2022-07-12T01:09:54;17.00;99.90
22970;DHT22;11651;52.136;5.572;2022-07-12T01:12:21;16.90;99.90
22970;DHT22;11651;52.136;5.572;2022-07-12T01:14:48;16.80;99.90
22970;DHT22;11651;52.136;5.572;2022-07-12T01:17:14;16.80;99.90
22970;DHT22;11651;52.136;5.572;2022-07-12T01:19:40;16.80;99.90
22970;DHT22;11651;52.136;5.572;2022-07-12T01:22:09;16.80;99.90
22970;DHT22;11651;52.136;5.572;2022-07-12T01:24:36;18.20;99.90
22970;DHT22;11651;52.136;5.572;2022-07-12T01:27:03;16.70;99.90
22970;DHT22;11651;52.136;5.572;2022-07-12T01:29:31;16.30;99.90
22970;DHT22;11651;52.136;5.572;2022-07-12T01:31:59;16.60;99.90
22970;DHT22;11651;52.136;5.572;2022-07-12T01:34:46;16.50;99.90
22970;DHT22;11651;52.136;5.572;2022-07-12T01:37:14;16.50;99.90
22970;DHT22;11651;52.136;5.572;2022-07-12T01:39:40;16.40;99.90
22970;DHT22;11651;52.136;5.572;2022-07-12T01:42:05;16.40;99.90
22970;DHT22;11651;52.136;5.572;2022-07-12T01:44:31;16.40;99.90
22970;DHT22;11651;52.136;5.572;2022-07-12T01:46:58;16.30;99.90
22970;DHT22;11651;52.136;5.572;2022-07-12T01:49:23;16.30;99.90
22970;DHT22;11651;52.136;5.572;2022-07-12T01:51:49;16.30;99.90
22970;DHT22;11651;52.136;5.572;2022-07-12T01:54:15;16.30;99.90
22970;DHT22;11651;52.136;5.572;2022-07-12T01:56:40;16.30;99.90
22970;DHT22;11651;52.136;5.572;2022-07-12T01:59:06;16.20;99.90
22970;DHT22;11651;52.136;5.572;2022-07-12T02:01:33;16.20;99.90
22970;DHT22;11651;52.136;5.572;2022-07-12T02:04:05;17.20;99.90
22970;DHT22;11651;52.136;5.572;2022-07-12T02:06:31;16.20;99.90
22970;DHT22;11651;52.136;5.572;2022-07-12T02:08:58;16.50;99.90
22970;DHT22;11651;52.136;5.572;2022-07-12T02:11:23;16.90;99.90
22970;DHT22;11651;52.136;5.572;2022-07-12T02:13:49;16.20;99.90
22970;DHT22;11651;52.136;5.572;2022-07-12T02:16:15;16.20;99.90
22970;DHT22;11651;52.136;5.572;2022-07-12T02:18:41;16.10;99.90
22970;DHT22;11651;52.136;5.572;2022-07-12T02:21:07;16.10;99.90
22970;DHT22;11651;52.136;5.572;2022-07-12T02:23:32;17.20;99.90
22970;DHT22;11651;52.136;5.572;2022-07-12T02:25:58;16.10;99.90
22970;DHT22;11651;52.136;5.572;2022-07-12T02:28:24;16.00;99.90
22970;DHT22;11651;52.136;5.572;2022-07-12T02:30:49;16.00;99.90
22970;DHT22;11651;52.136;5.572;2022-07-12T02:33:15;16.00;99.90
22970;DHT22;11651;52.136;5.572;2022-07-12T02:35:42;16.00;99.90
22970;DHT22;11651;52.136;5.572;2022-07-12T02:38:08;15.90;99.90
22970;DHT22;11651;52.136;5.572;2022-07-12T02:40:33;15.90;99.90
22970;DHT22;11651;52.136;5.572;2022-07-12T02:43:17;15.90;99.90
22970;DHT22;11651;52.136;5.572;2022-07-12T02:45:43;15.90;99.90
22970;DHT22;11651;52.136;5.572;2022-07-12T02:48:08;15.90;99.90
22970;DHT22;11651;52.136;5.572;2022-07-12T02:50:36;16.30;99.90
22970;DHT22;11651;52.136;5.572;2022-07-12T02:53:05;16.30;99.90
22970;DHT22;11651;52.136;5.572;2022-07-12T02:55:30;15.80;99.90
22970;DHT22;11651;52.136;5.572;2022-07-12T02:57:56;15.80;99.90
22970;DHT22;11651;52.136;5.572;2022-07-12T03:00:22;15.80;99.90
22970;DHT22;11651;52.136;5.572;2022-07-12T03:02:47;15.80;99.90
22970;DHT22;11651;52.136;5.572;2022-07-12T03:05:13;16.60;99.90
22970;DHT22;11651;52.136;5.572;2022-07-12T03:07:38;15.70;99.90
22970;DHT22;11651;52.136;5.572;2022-07-12T03:10:05;15.70;99.90
22970;DHT22;11651;52.136;5.572;2022-07-12T03:12:30;15.70;99.90
22970;DHT22;11651;52.136;5.572;2022-07-12T03:14:56;15.70;99.90
22970;DHT22;11651;52.136;5.572;2022-07-12T03:17:22;15.70;99.90
22970;DHT22;11651;52.136;5.572;2022-07-12T03:19:47;16.40;99.90
22970;DHT22;11651;52.136;5.572;2022-07-12T03:22:13;15.60;99.90
22970;DHT22;11651;52.136;5.572;2022-07-12T03:24:38;15.60;99.90
22970;DHT22;11651;52.136;5.572;2022-07-12T03:27:04;15.80;99.90
22970;DHT22;11651;52.136;5.572;2022-07-12T03:29:29;15.60;99.90
22970;DHT22;11651;52.136;5.572;2022-07-12T03:31:55;15.60;99.90
22970;DHT22;11651;52.136;5.572;2022-07-12T03:34:20;15.50;99.90
22970;DHT22;11651;52.136;5.572;2022-07-12T03:36:46;15.50;99.90
22970;DHT22;11651;52.136;5.572;2022-07-12T03:39:11;15.60;99.90
22970;DHT22;11651;52.136;5.572;2022-07-12T03:41:37;15.70;99.90
22970;DHT22;11651;52.136;5.572;2022-07-12T03:44:03;15.70;99.90
22970;DHT22;11651;52.136;5.572;2022-07-12T03:46:29;15.50;99.90
22970;DHT22;11651;52.136;5.572;2022-07-12T03:48:54;15.50;99.90
22970;DHT22;11651;52.136;5.572;2022-07-12T03:51:20;15.50;99.90
22970;DHT22;11651;52.136;5.572;2022-07-12T03:53:45;15.50;99.90
22970;DHT22;11651;52.136;5.572;2022-07-12T03:56:11;15.50;99.90
22970;DHT22;11651;52.136;5.572;2022-07-12T03:58:56;15.50;99.90
22970;DHT22;11651;52.136;5.572;2022-07-12T04:01:22;15.50;99.90
22970;DHT22;11651;52.136;5.572;2022-07-12T04:03:48;15.50;99.90
22970;DHT22;11651;52.136;5.572;2022-07-12T04:06:13;16.50;99.90
22970;DHT22;11651;52.136;5.572;2022-07-12T04:08:39;15.80;99.90
22970;DHT22;11651;52.136;5.572;2022-07-12T04:11:05;15.70;99.90
22970;DHT22;11651;52.136;5.572;2022-07-12T04:13:31;16.80;99.90
22970;DHT22;11651;52.136;5.572;2022-07-12T04:15:57;15.70;99.90
22970;DHT22;11651;52.136;5.572;2022-07-12T04:18:24;16.20;99.90
22970;DHT22;11651;52.136;5.572;2022-07-12T04:20:49;15.80;99.90
22970;DHT22;11651;52.136;5.572;2022-07-12T04:23:15;16.60;99.90
22970;DHT22;11651;52.136;5.572;2022-07-12T04:25:40;15.90;99.90
22970;DHT22;11651;52.136;5.572;2022-07-12T04:28:06;15.90;99.90
22970;DHT22;11651;52.136;5.572;2022-07-12T04:30:31;16.60;99.90
22970;DHT22;11651;52.136;5.572;2022-07-12T04:32:57;16.30;99.90
22970;DHT22;11651;52.136;5.572;2022-07-12T04:35:22;16.20;99.90
22970;DHT22;11651;52.136;5.572;2022-07-12T04:37:48;16.90;99.90
22970;DHT22;11651;52.136;5.572;2022-07-12T04:40:14;16.40;99.90
22970;DHT22;11651;52.136;5.572;2022-07-12T04:42:39;16.40;99.90
22970;DHT22;11651;52.136;5.572;2022-07-12T04:45:05;16.60;99.90
22970;DHT22;11651;52.136;5.572;2022-07-12T04:47:31;16.60;99.90
22970;DHT22;11651;52.136;5.572;2022-07-12T04:49:56;17.70;99.90
22970;DHT22;11651;52.136;5.572;2022-07-12T04:52:22;16.80;99.90
22970;DHT22;11651;52.136;5.572;2022-07-12T04:54:48;17.00;99.90
22970;DHT22;11651;52.136;5.572;2022-07-12T04:57:13;17.10;99.90
22970;DHT22;11651;52.136;5.572;2022-07-12T04:59:39;17.30;99.90
22970;DHT22;11651;52.136;5.572;2022-07-12T05:02:04;17.40;99.90
22970;DHT22;11651;52.136;5.572;2022-07-12T05:04:33;18.00;99.90
22970;DHT22;11651;52.136;5.572;2022-07-12T05:06:59;18.40;99.90
22970;DHT22;11651;52.136;5.572;2022-07-12T05:09:24;17.70;99.90
22970;DHT22;11651;52.136;5.572;2022-07-12T05:11:50;17.80;99.90
22970;DHT22;11651;52.136;5.572;2022-07-12T05:14:16;17.90;99.90
22970;DHT22;11651;52.136;5.572;2022-07-12T05:16:41;18.30;99.90
22970;DHT22;11651;52.136;5.572;2022-07-12T05:19:07;17.90;99.90
22970;DHT22;11651;52.136;5.572;2022-07-12T05:21:33;17.80;99.90
22970;DHT22;11651;52.136;5.572;2022-07-12T05:24:01;18.20;99.90
22970;DHT22;11651;52.136;5.572;2022-07-12T05:26:26;17.80;99.90
22970;DHT22;11651;52.136;5.572;2022-07-12T05:28:52;17.80;99.90
22970;DHT22;11651;52.136;5.572;2022-07-12T05:31:17;18.10;99.90
22970;DHT22;11651;52.136;5.572;2022-07-12T05:33:44;18.70;99.90
22970;DHT22;11651;52.136;5.572;2022-07-12T05:36:09;18.50;99.90
22970;DHT22;11651;52.136;5.572;2022-07-12T05:38:35;19.60;99.90
22970;DHT22;11651;52.136;5.572;2022-07-12T05:41:00;19.80;99.90
22970;DHT22;11651;52.136;5.572;2022-07-12T05:43:26;19.10;99.90
22970;DHT22;11651;52.136;5.572;2022-07-12T05:45:52;19.20;99.90
22970;DHT22;11651;52.136;5.572;2022-07-12T05:48:18;20.40;99.90
22970;DHT22;11651;52.136;5.572;2022-07-12T05:50:43;19.50;99.90
22970;DHT22;11651;52.136;5.572;2022-07-12T05:53:09;20.40;99.90
22970;DHT22;11651;52.136;5.572;2022-07-12T05:55:51;20.50;99.90
22970;DHT22;11651;52.136;5.572;2022-07-12T05:58:17;20.10;99.90
22970;DHT22;11651;52.136;5.572;2022-07-12T06:00:43;20.10;99.90
22970;DHT22;11651;52.136;5.572;2022-07-12T06:03:09;20.10;99.90
22970;DHT22;11651;52.136;5.572;2022-07-12T06:05:35;20.20;99.90
22970;DHT22;11651;52.136;5.572;2022-07-12T06:08:01;20.40;99.90
22970;DHT22;11651;52.136;5.572;2022-07-12T06:10:27;21.00;99.90
22970;DHT22;11651;52.136;5.572;2022-07-12T06:12:53;20.30;99.90
22970;DHT22;11651;52.136;5.572;2022-07-12T06:15:18;21.30;99.90
22970;DHT22;11651;52.136;5.572;2022-07-12T06:17:44;20.70;99.90
22970;DHT22;11651;52.136;5.572;2022-07-12T06:20:10;20.30;99.90
22970;DHT22;11651;52.136;5.572;2022-07-12T06:22:35;20.30;99.90
22970;DHT22;11651;52.136;5.572;2022-07-12T06:25:01;20.30;99.90
22970;DHT22;11651;52.136;5.572;2022-07-12T06:27:27;20.40;99.90
22970;DHT22;11651;52.136;5.572;2022-07-12T06:29:52;20.60;99.90
22970;DHT22;11651;52.136;5.572;2022-07-12T06:32:18;20.80;99.90
22970;DHT22;11651;52.136;5.572;2022-07-12T06:34:44;20.90;99.90
22970;DHT22;11651;52.136;5.572;2022-07-12T06:37:10;21.20;99.90
22970;DHT22;11651;52.136;5.572;2022-07-12T06:39:38;21.40;99.90
22970;DHT22;11651;52.136;5.572;2022-07-12T06:42:04;21.50;99.90
22970;DHT22;11651;52.136;5.572;2022-07-12T06:44:30;21.80;99.90
22970;DHT22;11651;52.136;5.572;2022-07-12T06:46:56;21.90;99.90
22970;DHT22;11651;52.136;5.572;2022-07-12T06:49:22;22.30;99.90
22970;DHT22;11651;52.136;5.572;2022-07-12T06:51:48;22.10;99.90
22970;DHT22;11651;52.136;5.572;2022-07-12T06:54:13;22.50;99.90
22970;DHT22;11651;52.136;5.572;2022-07-12T06:56:39;22.80;99.90
22970;DHT22;11651;52.136;5.572;2022-07-12T06:59:05;22.50;99.90
22970;DHT22;11651;52.136;5.572;2022-07-12T07:01:30;24.00;99.90
22970;DHT22;11651;52.136;5.572;2022-07-12T07:03:56;23.30;99.90
22970;DHT22;11651;52.136;5.572;2022-07-12T07:06:21;23.70;99.90
22970;DHT22;11651;52.136;5.572;2022-07-12T07:08:47;23.40;99.90
22970;DHT22;11651;52.136;5.572;2022-07-12T07:11:12;23.70;99.90
22970;DHT22;11651;52.136;5.572;2022-07-12T07:13:38;24.20;99.90
22970;DHT22;11651;52.136;5.572;2022-07-12T07:16:05;24.60;99.90
22970;DHT22;11651;52.136;5.572;2022-07-12T07:18:30;23.80;99.90
22970;DHT22;11651;52.136;5.572;2022-07-12T07:20:56;24.90;99.90
22970;DHT22;11651;52.136;5.572;2022-07-12T07:23:21;23.80;99.90
22970;DHT22;11651;52.136;5.572;2022-07-12T07:25:47;23.80;99.90
22970;DHT22;11651;52.136;5.572;2022-07-12T07:28:13;24.80;99.90
22970;DHT22;11651;52.136;5.572;2022-07-12T07:30:38;23.80;99.90
22970;DHT22;11651;52.136;5.572;2022-07-12T07:33:20;23.90;99.90
22970;DHT22;11651;52.136;5.572;2022-07-12T07:35:47;23.80;99.90
22970;DHT22;11651;52.136;5.572;2022-07-12T07:38:13;23.90;99.90
22970;DHT22;11651;52.136;5.572;2022-07-12T07:40:38;24.20;99.90
22970;DHT22;11651;52.136;5.572;2022-07-12T07:43:04;24.60;99.90
22970;DHT22;11651;52.136;5.572;2022-07-12T07:45:29;24.70;99.90
22970;DHT22;11651;52.136;5.572;2022-07-12T07:47:55;25.00;99.90
22970;DHT22;11651;52.136;5.572;2022-07-12T07:50:20;25.10;99.90
22970;DHT22;11651;52.136;5.572;2022-07-12T07:52:46;25.20;99.90
22970;DHT22;11651;52.136;5.572;2022-07-12T07:55:14;25.30;99.90
22970;DHT22;11651;52.136;5.572;2022-07-12T07:57:40;25.30;99.90
22970;DHT22;11651;52.136;5.572;2022-07-12T08:00:05;25.30;99.90
22970;DHT22;11651;52.136;5.572;2022-07-12T08:02:31;25.30;99.90
22970;DHT22;11651;52.136;5.572;2022-07-12T08:04:57;25.90;99.90
22970;DHT22;11651;52.136;5.572;2022-07-12T08:07:22;26.90;99.90
22970;DHT22;11651;52.136;5.572;2022-07-12T08:09:48;26.10;99.90
22970;DHT22;11651;52.136;5.572;2022-07-12T08:12:14;26.90;99.90
22970;DHT22;11651;52.136;5.572;2022-07-12T08:14:39;26.80;99.90
22970;DHT22;11651;52.136;5.572;2022-07-12T08:17:05;27.90;99.90
22970;DHT22;11651;52.136;5.572;2022-07-12T08:19:33;27.60;99.90
22970;DHT22;11651;52.136;5.572;2022-07-12T08:21:59;28.00;99.90
22970;DHT22;11651;52.136;5.572;2022-07-12T08:24:24;27.70;99.90
22970;DHT22;11651;52.136;5.572;2022-07-12T08:26:50;28.40;99.90
22970;DHT22;11651;52.136;5.572;2022-07-12T08:29:16;28.30;99.90
22970;DHT22;11651;52.136;5.572;2022-07-12T08:31:41;27.20;99.90
22970;DHT22;11651;52.136;5.572;2022-07-12T08:34:07;28.20;99.90
22970;DHT22;11651;52.136;5.572;2022-07-12T08:36:36;27.00;99.90
22970;DHT22;11651;52.136;5.572;2022-07-12T08:39:02;27.00;99.90
22970;DHT22;11651;52.136;5.572;2022-07-12T08:41:28;27.10;99.90
22970;DHT22;11651;52.136;5.572;2022-07-12T08:43:54;27.10;99.90
22970;DHT22;11651;52.136;5.572;2022-07-12T08:46:20;27.90;99.90
22970;DHT22;11651;52.136;5.572;2022-07-12T08:48:46;27.40;99.90
22970;DHT22;11651;52.136;5.572;2022-07-12T08:51:13;28.50;99.90
22970;DHT22;11651;52.136;5.572;2022-07-12T08:53:40;28.60;99.90
22970;DHT22;11651;52.136;5.572;2022-07-12T08:56:06;27.40;99.90
22970;DHT22;11651;52.136;5.572;2022-07-12T08:58:32;27.50;99.90
22970;DHT22;11651;52.136;5.572;2022-07-12T09:00:58;28.70;99.90
22970;DHT22;11651;52.136;5.572;2022-07-12T09:03:25;27.70;99.90
22970;DHT22;11651;52.136;5.572;2022-07-12T09:05:56;27.90;99.90
22970;DHT22;11651;52.136;5.572;2022-07-12T09:08:31;28.00;99.90
22970;DHT22;11651;52.136;5.572;2022-07-12T09:11:02;27.20;99.90
22970;DHT22;11651;52.136;5.572;2022-07-12T09:16:15;28.30;99.90
22970;DHT22;11651;52.136;5.572;2022-07-12T09:18:42;28.50;99.90
22970;DHT22;11651;52.136;5.572;2022-07-12T09:21:08;28.60;99.90
22970;DHT22;11651;52.136;5.572;2022-07-12T09:23:33;29.80;99.90
22970;DHT22;11651;52.136;5.572;2022-07-12T09:25:59;28.70;99.90
22970;DHT22;11651;52.136;5.572;2022-07-12T09:28:26;28.70;99.90
22970;DHT22;11651;52.136;5.572;2022-07-12T09:30:52;28.70;99.90
22970;DHT22;11651;52.136;5.572;2022-07-12T09:33:20;29.20;99.90
22970;DHT22;11651;52.136;5.572;2022-07-12T09:36:06;28.90;99.90
22970;DHT22;11651;52.136;5.572;2022-07-12T09:40:59;28.90;99.90
22970;DHT22;11651;52.136;5.572;2022-07-12T09:43:26;29.00;99.90
22970;DHT22;11651;52.136;5.572;2022-07-12T09:45:52;29.10;99.90
22970;DHT22;11651;52.136;5.572;2022-07-12T09:48:19;29.00;99.90
22970;DHT22;11651;52.136;5.572;2022-07-12T09:50:48;29.20;99.90
22970;DHT22;11651;52.136;5.572;2022-07-12T09:53:20;29.20;99.90
22970;DHT22;11651;52.136;5.572;2022-07-12T09:55:54;29.50;99.90
22970;DHT22;11651;52.136;5.572;2022-07-12T10:01:11;29.70;99.90
22970;DHT22;11651;52.136;5.572;2022-07-12T10:03:49;30.80;99.90
22970;DHT22;11651;52.136;5.572;2022-07-12T10:06:21;30.30;99.90
22970;DHT22;11651;52.136;5.572;2022-07-12T10:08:48;30.50;99.90
22970;DHT22;11651;52.136;5.572;2022-07-12T10:11:14;30.00;99.90
22970;DHT22;11651;52.136;5.572;2022-07-12T10:13:43;30.70;99.90
22970;DHT22;11651;52.136;5.572;2022-07-12T10:16:10;30.70;99.90
22970;DHT22;11651;52.136;5.572;2022-07-12T10:18:39;30.40;99.90
22970;DHT22;11651;52.136;5.572;2022-07-12T10:21:20;30.40;99.90
22970;DHT22;11651;52.136;5.572;2022-07-12T10:23:48;30.40;99.90
22970;DHT22;11651;52.136;5.572;2022-07-12T10:29:00;29.70;99.90
22970;DHT22;11651;52.136;5.572;2022-07-12T10:31:37;31.60;99.90
22970;DHT22;11651;52.136;5.572;2022-07-12T10:34:19;30.30;99.90
22970;DHT22;11651;52.136;5.572;2022-07-12T10:39:26;31.40;99.90
22970;DHT22;11651;52.136;5.572;2022-07-12T10:42:13;31.30;99.90
22970;DHT22;11651;52.136;5.572;2022-07-12T10:44:42;31.50;99.90
22970;DHT22;11651;52.136;5.572;2022-07-12T10:47:10;31.40;99.90
22970;DHT22;11651;52.136;5.572;2022-07-12T10:49:46;32.60;99.90
22970;DHT22;11651;52.136;5.572;2022-07-12T10:52:16;32.00;99.90
22970;DHT22;11651;52.136;5.572;2022-07-12T10:54:47;32.00;99.90
22970;DHT22;11651;52.136;5.572;2022-07-12T10:57:40;32.20;99.90
22970;DHT22;11651;52.136;5.572;2022-07-12T11:00:07;32.30;99.90
22970;DHT22;11651;52.136;5.572;2022-07-12T11:02:35;32.30;99.90
22970;DHT22;11651;52.136;5.572;2022-07-12T11:05:04;32.00;99.90
22970;DHT22;11651;52.136;5.572;2022-07-12T11:07:32;32.00;99.90
22970;DHT22;11651;52.136;5.572;2022-07-12T11:09:57;32.10;99.90
22970;DHT22;11651;52.136;5.572;2022-07-12T11:12:30;32.10;99.90
22970;DHT22;11651;52.136;5.572;2022-07-12T11:14:58;32.20;99.90
22970;DHT22;11651;52.136;5.572;2022-07-12T11:17:28;32.70;99.90
22970;DHT22;11651;52.136;5.572;2022-07-12T11:20:09;32.40;99.90
22970;DHT22;11651;52.136;5.572;2022-07-12T11:22:40;32.60;99.90
22970;DHT22;11651;52.136;5.572;2022-07-12T11:25:11;31.30;99.90
22970;DHT22;11651;52.136;5.572;2022-07-12T11:27:37;32.50;99.90
22970;DHT22;11651;52.136;5.572;2022-07-12T11:30:05;32.40;99.90
22970;DHT22;11651;52.136;5.572;2022-07-12T11:32:38;32.90;99.90
22970;DHT22;11651;52.136;5.572;2022-07-12T11:35:20;32.80;99.90
22970;DHT22;11651;52.136;5.572;2022-07-12T11:37:54;32.60;99.90
22970;DHT22;11651;52.136;5.572;2022-07-12T11:40:28;32.60;99.90
22970;DHT22;11651;52.136;5.572;2022-07-12T11:42:58;33.00;99.90
22970;DHT22;11651;52.136;5.572;2022-07-12T11:45:28;33.90;99.90
22970;DHT22;11651;52.136;5.572;2022-07-12T11:47:55;33.00;99.90
22970;DHT22;11651;52.136;5.572;2022-07-12T11:50:22;33.20;99.90
22970;DHT22;11651;52.136;5.572;2022-07-12T11:52:47;33.20;99.90
22970;DHT22;11651;52.136;5.572;2022-07-12T11:55:13;33.20;99.90
22970;DHT22;11651;52.136;5.572;2022-07-12T11:57:39;33.00;99.90
22970;DHT22;11651;52.136;5.572;2022-07-12T12:00:22;33.00;99.90
22970;DHT22;11651;52.136;5.572;2022-07-12T12:02:53;32.90;99.90
22970;DHT22;11651;52.136;5.572;2022-07-12T12:05:20;32.80;99.90
22970;DHT22;11651;52.136;5.572;2022-07-12T12:07:46;32.90;99.90
22970;DHT22;11651;52.136;5.572;2022-07-12T12:10:19;33.00;99.90
22970;DHT22;11651;52.136;5.572;2022-07-12T12:12:55;33.10;99.90
22970;DHT22;11651;52.136;5.572;2022-07-12T12:15:22;33.30;99.90
22970;DHT22;11651;52.136;5.572;2022-07-12T12:17:57;33.30;99.90
22970;DHT22;11651;52.136;5.572;2022-07-12T12:20:25;33.10;99.90
22970;DHT22;11651;52.136;5.572;2022-07-12T12:22:59;33.00;99.90
22970;DHT22;11651;52.136;5.572;2022-07-12T12:25:26;33.10;99.90
22970;DHT22;11651;52.136;5.572;2022-07-12T12:28:05;33.00;99.90
22970;DHT22;11651;52.136;5.572;2022-07-12T12:30:35;33.20;99.90
22970;DHT22;11651;52.136;5.572;2022-07-12T12:33:13;33.40;99.90
22970;DHT22;11651;52.136;5.572;2022-07-12T12:35:39;33.40;99.90
22970;DHT22;11651;52.136;5.572;2022-07-12T12:38:14;33.50;99.90
22970;DHT22;11651;52.136;5.572;2022-07-12T12:40:50;34.20;99.90
22970;DHT22;11651;52.136;5.572;2022-07-12T12:43:20;34.50;99.90
22970;DHT22;11651;52.136;5.572;2022-07-12T12:45:53;34.00;99.90
22970;DHT22;11651;52.136;5.572;2022-07-12T12:48:23;33.90;99.90
22970;DHT22;11651;52.136;5.572;2022-07-12T12:50:51;34.00;99.90
22970;DHT22;11651;52.136;5.572;2022-07-12T12:53:22;34.10;99.90
22970;DHT22;11651;52.136;5.572;2022-07-12T12:55:51;34.20;99.50
22970;DHT22;11651;52.136;5.572;2022-07-12T12:58:17;34.00;99.50
22970;DHT22;11651;52.136;5.572;2022-07-12T13:00:46;34.20;99.40
22970;DHT22;11651;52.136;5.572;2022-07-12T13:03:13;34.20;99.30
22970;DHT22;11651;52.136;5.572;2022-07-12T13:05:40;34.10;99.90
22970;DHT22;11651;52.136;5.572;2022-07-12T13:08:07;33.90;99.90
22970;DHT22;11651;52.136;5.572;2022-07-12T13:10:34;33.90;99.90
22970;DHT22;11651;52.136;5.572;2022-07-12T13:13:01;34.10;99.90
22970;DHT22;11651;52.136;5.572;2022-07-12T13:15:27;34.30;99.70
22970;DHT22;11651;52.136;5.572;2022-07-12T13:17:56;34.50;99.60
22970;DHT22;11651;52.136;5.572;2022-07-12T13:20:23;34.70;99.90
22970;DHT22;11651;52.136;5.572;2022-07-12T13:22:49;34.90;99.70
22970;DHT22;11651;52.136;5.572;2022-07-12T13:25:18;34.80;99.10
22970;DHT22;11651;52.136;5.572;2022-07-12T13:27:44;34.60;98.70
22970;DHT22;11651;52.136;5.572;2022-07-12T13:30:12;34.70;98.80
22970;DHT22;11651;52.136;5.572;2022-07-12T13:32:38;34.80;98.90
22970;DHT22;11651;52.136;5.572;2022-07-12T13:35:05;35.00;98.40
22970;DHT22;11651;52.136;5.572;2022-07-12T13:37:32;35.20;98.50
22970;DHT22;11651;52.136;5.572;2022-07-12T13:39:59;34.50;97.80
22970;DHT22;11651;52.136;5.572;2022-07-12T13:42:50;36.10;98.00
22970;DHT22;11651;52.136;5.572;2022-07-12T13:45:21;35.40;97.70
22970;DHT22;11651;52.136;5.572;2022-07-12T13:47:47;35.30;97.20
22970;DHT22;11651;52.136;5.572;2022-07-12T13:50:14;35.30;97.70
22970;DHT22;11651;52.136;5.572;2022-07-12T13:52:41;35.30;97.50
22970;DHT22;11651;52.136;5.572;2022-07-12T13:55:11;35.60;97.50
22970;DHT22;11651;52.136;5.572;2022-07-12T13:57:38;35.70;97.20
22970;DHT22;11651;52.136;5.572;2022-07-12T14:00:06;35.70;97.30
22970;DHT22;11651;52.136;5.572;2022-07-12T14:02:40;35.50;96.60
22970;DHT22;11651;52.136;5.572;2022-07-12T14:05:07;35.20;96.70
22970;DHT22;11651;52.136;5.572;2022-07-12T14:07:33;34.90;97.00
22970;DHT22;11651;52.136;5.572;2022-07-12T14:10:00;34.70;96.70
22970;DHT22;11651;52.136;5.572;2022-07-12T14:12:26;35.40;97.10
22970;DHT22;11651;52.136;5.572;2022-07-12T14:14:52;34.10;96.90
22970;DHT22;11651;52.136;5.572;2022-07-12T14:17:41;34.30;97.30
22970;DHT22;11651;52.136;5.572;2022-07-12T14:20:12;34.30;97.60
22970;DHT22;11651;52.136;5.572;2022-07-12T14:22:40;34.20;97.40
22970;DHT22;11651;52.136;5.572;2022-07-12T14:25:07;34.20;97.40
22970;DHT22;11651;52.136;5.572;2022-07-12T14:27:37;33.90;97.40
22970;DHT22;11651;52.136;5.572;2022-07-12T14:30:04;33.70;97.60
22970;DHT22;11651;52.136;5.572;2022-07-12T14:32:31;33.20;98.30
22970;DHT22;11651;52.136;5.572;2022-07-12T14:34:57;33.10;98.60
22970;DHT22;11651;52.136;5.572;2022-07-12T14:37:23;32.90;98.60
22970;DHT22;11651;52.136;5.572;2022-07-12T14:39:48;32.90;98.80
22970;DHT22;11651;52.136;5.572;2022-07-12T14:42:15;32.80;99.30
22970;DHT22;11651;52.136;5.572;2022-07-12T14:44:40;32.60;99.00
22970;DHT22;11651;52.136;5.572;2022-07-12T14:47:06;32.70;99.20
22970;DHT22;11651;52.136;5.572;2022-07-12T14:49:33;32.50;99.70
22970;DHT22;11651;52.136;5.572;2022-07-12T14:51:58;33.50;99.70
22970;DHT22;11651;52.136;5.572;2022-07-12T14:54:24;32.30;99.30
22970;DHT22;11651;52.136;5.572;2022-07-12T14:56:49;32.40;99.70
22970;DHT22;11651;52.136;5.572;2022-07-12T14:59:15;32.40;99.30
22970;DHT22;11651;52.136;5.572;2022-07-12T15:01:41;32.40;99.10
22970;DHT22;11651;52.136;5.572;2022-07-12T15:04:06;32.10;98.90
22970;DHT22;11651;52.136;5.572;2022-07-12T15:06:33;32.10;99.50
22970;DHT22;11651;52.136;5.572;2022-07-12T15:08:58;32.60;99.60
22970;DHT22;11651;52.136;5.572;2022-07-12T15:11:24;31.90;99.80
22970;DHT22;11651;52.136;5.572;2022-07-12T15:13:50;31.80;99.90
22970;DHT22;11651;52.136;5.572;2022-07-12T15:16:15;31.60;99.90
22970;DHT22;11651;52.136;5.572;2022-07-12T15:18:41;31.50;99.90
22970;DHT22;11651;52.136;5.572;2022-07-12T15:21:07;31.40;99.90
22970;DHT22;11651;52.136;5.572;2022-07-12T15:23:33;31.50;99.90
22970;DHT22;11651;52.136;5.572;2022-07-12T15:25:59;31.20;99.90
22970;DHT22;11651;52.136;5.572;2022-07-12T15:28:28;31.60;99.90
22970;DHT22;11651;52.136;5.572;2022-07-12T15:30:55;31.20;99.90
22970;DHT22;11651;52.136;5.572;2022-07-12T15:33:21;31.10;99.90
22970;DHT22;11651;52.136;5.572;2022-07-12T15:35:54;31.00;99.90
22970;DHT22;11651;52.136;5.572;2022-07-12T15:38:20;31.60;99.90
22970;DHT22;11651;52.136;5.572;2022-07-12T15:40:46;30.80;99.90
22970;DHT22;11651;52.136;5.572;2022-07-12T15:43:11;31.70;99.90
22970;DHT22;11651;52.136;5.572;2022-07-12T15:45:37;32.10;99.90